createdAt,value
2017-08-08T00:02:05.233Z,21.30
2017-08-08T00:04:32.573Z,21.30
2017-08-08T00:06:59.453Z,21.30
2017-08-08T00:09:26.373Z,21.20
2017-08-08T00:11:53.650Z,21.20
2017-08-08T00:14:20.534Z,21.20
2017-08-08T00:16:47.463Z,21.30
2017-08-08T00:19:14.352Z,21.30
2017-08-08T00:21:41.237Z,21.30
2017-08-08T00:24:08.249Z,21.30
2017-08-08T00:26:35.197Z,21.40
2017-08-08T00:29:02.079Z,21.40
2017-08-08T00:31:29.005Z,21.50
2017-08-08T00:33:56.337Z,21.40
2017-08-08T00:36:23.286Z,21.40
2017-08-08T00:38:50.233Z,21.40
2017-08-08T00:41:17.177Z,21.40
2017-08-08T00:43:44.066Z,21.40
2017-08-08T00:46:11.064Z,21.40
2017-08-08T00:48:38.017Z,21.40
2017-08-08T00:51:04.970Z,21.40
2017-08-08T00:53:32.321Z,21.40
2017-08-08T00:55:59.194Z,21.40
2017-08-08T00:58:26.114Z,21.30
2017-08-08T01:00:53.000Z,21.30
2017-08-08T01:03:20.001Z,21.10
2017-08-08T01:05:46.949Z,21.00
2017-08-08T01:08:13.898Z,21.00
2017-08-08T01:10:40.841Z,20.90
2017-08-08T01:13:07.766Z,20.90
2017-08-08T01:15:34.646Z,20.90
2017-08-08T01:18:01.934Z,20.70
2017-08-08T01:20:28.845Z,20.70
2017-08-08T01:22:56.135Z,20.80
2017-08-08T01:25:23.080Z,20.80
2017-08-08T01:27:49.990Z,20.80
2017-08-08T01:30:17.270Z,20.70
2017-08-08T01:32:44.149Z,20.70
2017-08-08T01:35:11.101Z,20.60
2017-08-08T01:37:37.988Z,20.50
2017-08-08T01:40:05.262Z,20.40
2017-08-08T01:42:32.177Z,20.40
2017-08-08T01:44:59.054Z,20.30
2017-08-08T01:47:25.937Z,20.40
2017-08-08T01:49:52.865Z,20.30
2017-08-08T01:52:19.849Z,20.30
2017-08-08T01:54:46.728Z,20.30
2017-08-08T01:57:13.641Z,20.20
2017-08-08T01:59:40.594Z,20.30
2017-08-08T02:02:07.469Z,20.30
2017-08-08T02:04:34.419Z,20.40
2017-08-08T02:07:01.322Z,20.40
2017-08-08T02:09:28.278Z,20.50
2017-08-08T02:11:55.197Z,20.50
2017-08-08T02:14:22.078Z,20.60
2017-08-08T02:16:49.354Z,20.70
2017-08-08T02:19:16.261Z,20.70
2017-08-08T02:21:43.142Z,20.70
2017-08-08T02:24:10.052Z,20.80
2017-08-08T02:26:37.001Z,20.80
2017-08-08T02:29:03.953Z,20.80
2017-08-08T02:31:31.226Z,20.80
2017-08-08T02:33:58.145Z,20.80
2017-08-08T02:36:25.094Z,20.80
2017-08-08T02:38:52.016Z,20.80
2017-08-08T02:41:18.981Z,20.80
2017-08-08T02:43:45.865Z,20.80
2017-08-08T02:46:12.782Z,20.80
2017-08-08T02:48:39.717Z,20.90
2017-08-08T02:51:06.670Z,20.90
2017-08-08T02:53:33.616Z,20.80
2017-08-08T02:56:00.497Z,20.90
2017-08-08T02:58:27.379Z,20.90
2017-08-08T03:00:54.349Z,20.80
2017-08-08T03:03:21.306Z,20.80
2017-08-08T03:05:48.247Z,20.70
2017-08-08T03:08:15.192Z,20.60
2017-08-08T03:10:42.138Z,20.70
2017-08-08T03:13:09.082Z,20.70
2017-08-08T03:15:35.996Z,20.70
2017-08-08T03:18:02.977Z,20.70
2017-08-08T03:20:29.903Z,20.60
2017-08-08T03:22:56.785Z,20.60
2017-08-08T03:25:24.134Z,20.70
2017-08-08T03:27:51.477Z,20.70
2017-08-08T03:30:18.433Z,20.70
2017-08-08T03:32:45.315Z,20.60
2017-08-08T03:35:12.317Z,20.50
2017-08-08T03:37:39.200Z,20.50
2017-08-08T03:40:06.077Z,20.50
2017-08-08T03:42:33.056Z,20.50
2017-08-08T03:45:00.001Z,20.50
2017-08-08T03:47:26.949Z,20.50
2017-08-08T03:49:53.885Z,20.50
2017-08-08T03:52:20.845Z,20.60
2017-08-08T03:54:47.725Z,20.50
2017-08-08T03:57:14.701Z,20.50
2017-08-08T03:59:41.585Z,20.50
2017-08-08T04:02:08.457Z,20.40
2017-08-08T04:04:35.382Z,20.40
2017-08-08T04:07:02.258Z,20.40
2017-08-08T04:09:29.137Z,20.40
2017-08-08T04:11:56.449Z,20.40
2017-08-08T04:14:23.429Z,20.40
2017-08-08T04:16:50.377Z,20.40
2017-08-08T04:19:17.306Z,20.50
2017-08-08T04:21:44.270Z,20.40
2017-08-08T04:24:11.215Z,20.30
2017-08-08T04:26:38.166Z,20.30
2017-08-08T04:29:05.110Z,20.30
2017-08-08T04:31:32.058Z,20.20
2017-08-08T04:33:59.002Z,20.30
2017-08-08T04:36:25.883Z,20.30
2017-08-08T04:38:52.774Z,20.20
2017-08-08T04:41:19.735Z,20.20
2017-08-08T04:43:46.689Z,20.30
2017-08-08T04:46:13.632Z,20.50
2017-08-08T04:48:40.559Z,20.50
2017-08-08T04:51:07.441Z,20.50
2017-08-08T04:53:34.713Z,20.60
2017-08-08T04:56:01.717Z,20.50
2017-08-08T04:58:28.601Z,20.40
2017-08-08T05:00:55.609Z,20.50
2017-08-08T05:03:22.566Z,20.60
2017-08-08T05:05:49.509Z,20.60
2017-08-08T05:08:16.453Z,20.70
2017-08-08T05:10:43.402Z,20.60
2017-08-08T05:13:10.281Z,20.60
2017-08-08T05:15:37.294Z,20.70
2017-08-08T05:18:04.250Z,20.80
2017-08-08T05:20:31.602Z,20.90
2017-08-08T05:22:58.549Z,20.90
2017-08-08T05:25:25.499Z,21.00
2017-08-08T05:27:52.845Z,21.10
2017-08-08T05:30:19.761Z,21.10
2017-08-08T05:32:46.769Z,21.10
2017-08-08T05:35:13.685Z,21.10
2017-08-08T05:37:40.602Z,21.20
2017-08-08T05:40:07.490Z,21.20
2017-08-08T05:42:34.761Z,21.20
2017-08-08T05:45:01.690Z,21.20
2017-08-08T05:47:29.033Z,21.20
2017-08-08T05:49:55.910Z,21.20
2017-08-08T05:52:22.925Z,21.30
2017-08-08T05:54:50.282Z,21.40
2017-08-08T05:57:17.229Z,21.40
2017-08-08T05:59:44.183Z,21.40
2017-08-08T06:02:11.539Z,21.50
2017-08-08T06:04:38.476Z,21.50
2017-08-08T06:07:05.404Z,21.50
2017-08-08T06:09:32.375Z,21.50
2017-08-08T06:11:59.317Z,21.40
2017-08-08T06:14:26.245Z,21.40
2017-08-08T06:16:53.205Z,21.50
2017-08-08T06:19:20.086Z,21.50
2017-08-08T06:21:47.101Z,21.60
2017-08-08T06:24:14.050Z,21.70
2017-08-08T06:26:40.929Z,21.80
2017-08-08T06:29:07.846Z,21.90
2017-08-08T06:31:35.196Z,22.00
2017-08-08T06:34:02.141Z,22.00
2017-08-08T06:36:29.063Z,22.20
2017-08-08T06:38:55.937Z,22.20
2017-08-08T06:41:22.876Z,22.30
2017-08-08T06:43:49.798Z,22.30
2017-08-08T06:46:16.769Z,22.30
2017-08-08T06:48:43.718Z,22.30
2017-08-08T06:51:10.712Z,22.30
2017-08-08T06:53:37.609Z,22.30
2017-08-08T06:56:04.493Z,22.30
2017-08-08T06:58:31.407Z,22.40
2017-08-08T07:00:58.349Z,22.40
2017-08-08T07:03:25.641Z,22.50
2017-08-08T07:05:52.562Z,22.50
2017-08-08T07:08:19.493Z,22.50
2017-08-08T07:10:46.441Z,22.70
2017-08-08T07:13:13.390Z,22.70
2017-08-08T07:15:40.269Z,22.70
2017-08-08T07:18:07.225Z,22.70
2017-08-08T07:20:34.229Z,22.80
2017-08-08T07:23:01.172Z,22.80
2017-08-08T07:25:28.121Z,22.80
2017-08-08T07:27:55.040Z,22.90
2017-08-08T07:30:22.015Z,23.00
2017-08-08T07:32:48.898Z,23.00
2017-08-08T07:35:15.845Z,23.10
2017-08-08T07:37:42.724Z,23.30
2017-08-08T07:40:09.694Z,23.40
2017-08-08T07:42:36.613Z,23.50
2017-08-08T07:45:03.581Z,23.40
2017-08-08T07:47:30.460Z,23.50
2017-08-08T07:49:57.518Z,23.40
2017-08-08T07:52:24.396Z,23.30
2017-08-08T07:54:51.382Z,23.10
2017-08-08T07:57:18.702Z,22.90
2017-08-08T07:59:45.701Z,22.90
2017-08-08T08:02:13.081Z,22.90
2017-08-08T08:04:40.154Z,22.90
2017-08-08T08:07:07.128Z,22.90
2017-08-08T08:09:34.018Z,22.90
2017-08-08T08:12:01.029Z,23.00
2017-08-08T08:14:27.922Z,23.10
2017-08-08T08:16:54.804Z,23.30
2017-08-08T08:19:21.762Z,23.50
2017-08-08T08:21:48.646Z,23.70
2017-08-08T08:24:15.653Z,23.90
2017-08-08T08:26:42.576Z,24.00
2017-08-08T08:29:09.457Z,24.10
2017-08-08T08:31:36.798Z,24.00
2017-08-08T08:34:03.745Z,24.00
2017-08-08T08:36:30.693Z,23.90
2017-08-08T08:38:57.636Z,23.80
2017-08-08T08:41:24.581Z,23.70
2017-08-08T08:43:51.538Z,23.80
2017-08-08T08:46:18.893Z,23.80
2017-08-08T08:48:46.217Z,23.90
2017-08-08T08:51:13.102Z,23.90
2017-08-08T08:53:40.449Z,23.80
2017-08-08T08:56:07.397Z,23.80
2017-08-08T08:58:34.766Z,23.80
2017-08-08T09:01:02.102Z,23.70
2017-08-08T09:03:29.012Z,23.70
2017-08-08T09:05:55.993Z,23.70
2017-08-08T09:08:23.077Z,23.60
2017-08-08T09:10:49.963Z,23.50
2017-08-08T09:13:16.937Z,23.40
2017-08-08T09:15:43.881Z,23.30
2017-08-08T09:18:10.794Z,23.20
2017-08-08T09:20:37.718Z,23.10
2017-08-08T09:23:04.721Z,23.10
2017-08-08T09:25:31.605Z,23.10
2017-08-08T09:27:58.486Z,23.10
2017-08-08T09:30:25.793Z,23.20
2017-08-08T09:32:52.677Z,23.20
2017-08-08T09:35:20.021Z,23.10
2017-08-08T09:37:46.902Z,23.10
2017-08-08T09:40:13.782Z,23.10
2017-08-08T09:42:40.761Z,23.10
2017-08-08T09:45:07.708Z,23.00
2017-08-08T09:47:34.657Z,23.00
2017-08-08T09:50:01.565Z,23.00
2017-08-08T09:52:28.566Z,23.00
2017-08-08T09:54:55.902Z,23.00
2017-08-08T09:57:22.849Z,23.00
2017-08-08T09:59:49.788Z,22.90
2017-08-08T10:02:16.741Z,22.90
2017-08-08T10:04:43.690Z,22.80
2017-08-08T10:07:10.600Z,22.50
2017-08-08T10:09:37.581Z,22.10
2017-08-08T10:12:04.575Z,22.00
2017-08-08T10:14:31.458Z,22.10
2017-08-08T10:16:58.417Z,22.20
2017-08-08T10:19:25.361Z,22.40
2017-08-08T10:21:52.360Z,22.50
2017-08-08T10:24:19.246Z,22.70
2017-08-08T10:26:46.253Z,22.90
2017-08-08T10:29:13.141Z,23.00
2017-08-08T10:31:40.097Z,23.10
2017-08-08T10:34:06.977Z,23.30
2017-08-08T10:36:33.984Z,23.50
2017-08-08T10:39:00.942Z,23.70
2017-08-08T10:41:27.885Z,23.80
2017-08-08T10:43:54.860Z,23.70
2017-08-08T10:46:22.182Z,23.40
2017-08-08T10:48:49.097Z,23.40
2017-08-08T10:51:15.973Z,23.50
2017-08-08T10:53:42.926Z,23.60
2017-08-08T10:56:09.864Z,23.60
2017-08-08T10:58:36.746Z,23.60
2017-08-08T11:01:03.709Z,23.60
2017-08-08T11:03:30.606Z,23.60
2017-08-08T11:05:57.550Z,23.50
2017-08-08T11:08:24.517Z,23.70
2017-08-08T11:10:51.809Z,23.90
2017-08-08T11:13:18.721Z,23.90
2017-08-08T11:15:46.058Z,23.90
2017-08-08T11:18:13.001Z,23.90
2017-08-08T11:20:39.906Z,23.80
2017-08-08T11:23:06.782Z,23.70
2017-08-08T11:25:33.740Z,23.50
2017-08-08T11:28:00.688Z,23.10
2017-08-08T11:30:27.609Z,23.00
2017-08-08T11:32:54.582Z,22.80
2017-08-08T11:37:43.554Z,22.70
2017-08-08T11:40:10.498Z,22.60
2017-08-08T11:42:37.455Z,22.70
2017-08-08T11:45:04.393Z,22.80
2017-08-08T11:47:31.689Z,23.10
2017-08-08T11:49:58.617Z,23.10
2017-08-08T11:52:25.909Z,23.40
2017-08-08T11:54:52.915Z,23.40
2017-08-08T11:57:20.233Z,23.60
2017-08-08T11:59:47.192Z,23.60
2017-08-08T12:02:14.079Z,23.70
2017-08-08T12:04:41.101Z,23.70
2017-08-08T12:07:07.974Z,23.60
2017-08-08T12:09:35.193Z,23.50
2017-08-08T12:12:02.145Z,23.40
2017-08-08T12:14:29.085Z,23.20
2017-08-08T12:16:56.029Z,23.10
2017-08-08T12:19:22.956Z,23.00
2017-08-08T12:21:49.938Z,23.00
2017-08-08T12:24:17.208Z,22.90
2017-08-08T12:26:44.230Z,22.90
2017-08-08T12:29:11.165Z,22.80
2017-08-08T12:31:38.121Z,22.70
2017-08-08T12:34:05.112Z,22.60
2017-08-08T12:36:32.017Z,22.40
2017-08-08T12:38:58.893Z,22.40
2017-08-08T12:41:25.815Z,22.50
2017-08-08T12:43:53.089Z,22.70
2017-08-08T12:46:20.005Z,22.70
2017-08-08T12:48:46.949Z,22.60
2017-08-08T12:51:13.893Z,22.70
2017-08-08T12:53:40.781Z,22.90
2017-08-08T12:56:07.789Z,23.40
2017-08-08T12:58:35.253Z,24.40
2017-08-08T13:01:02.134Z,24.40
2017-08-08T13:03:29.054Z,24.70
2017-08-08T13:05:56.333Z,24.90
2017-08-08T13:08:23.237Z,24.90
2017-08-08T13:10:50.184Z,25.10
2017-08-08T13:13:17.112Z,25.10
2017-08-08T13:15:44.073Z,25.30
2017-08-08T13:18:11.027Z,25.40
2017-08-08T13:20:37.965Z,25.40
2017-08-08T13:23:04.851Z,25.40
2017-08-08T13:25:31.865Z,25.40
2017-08-08T13:27:58.809Z,25.50
2017-08-08T13:30:25.689Z,25.60
2017-08-08T13:32:52.701Z,25.60
2017-08-08T13:35:19.645Z,25.50
2017-08-08T13:37:46.598Z,25.30
2017-08-08T13:40:13.542Z,25.10
2017-08-08T13:42:40.489Z,24.90
2017-08-08T13:45:07.438Z,24.70
2017-08-08T13:47:34.358Z,24.40
2017-08-08T13:50:01.329Z,24.20
2017-08-08T13:52:28.273Z,24.20
2017-08-08T13:54:55.222Z,24.10
2017-08-08T13:57:22.106Z,24.10
2017-08-08T13:59:49.011Z,24.00
2017-08-08T14:02:16.004Z,23.90
2017-08-08T14:04:42.882Z,23.80
2017-08-08T14:07:09.901Z,23.80
2017-08-08T14:09:36.817Z,23.60
2017-08-08T14:12:04.149Z,23.30
2017-08-08T14:14:31.029Z,23.30
2017-08-08T14:16:58.041Z,23.20
2017-08-08T14:19:24.939Z,23.10
2017-08-08T14:21:51.837Z,23.10
2017-08-08T14:24:18.781Z,23.20
2017-08-08T14:26:46.630Z,23.30
2017-08-08T14:29:13.604Z,23.50
2017-08-08T14:31:40.970Z,23.70
2017-08-08T14:34:08.241Z,23.80
2017-08-08T14:36:35.118Z,23.80
2017-08-08T14:39:02.022Z,23.90
2017-08-08T14:41:28.914Z,24.10
2017-08-08T14:43:55.890Z,24.40
2017-08-08T14:46:22.769Z,24.70
2017-08-08T14:48:49.681Z,25.10
2017-08-08T14:51:16.724Z,25.30
2017-08-08T14:53:43.617Z,25.60
2017-08-08T14:56:10.493Z,25.80
2017-08-08T14:58:37.417Z,25.90
2017-08-08T15:01:04.345Z,26.00
2017-08-08T15:03:31.253Z,26.00
2017-08-08T15:05:58.201Z,25.40
2017-08-08T15:08:25.094Z,24.90
2017-08-08T15:10:51.981Z,24.80
2017-08-08T15:13:18.914Z,25.00
2017-08-08T15:15:45.796Z,24.80
2017-08-08T15:18:13.143Z,25.00
2017-08-08T15:20:40.133Z,25.00
2017-08-08T15:23:07.017Z,25.30
2017-08-08T15:25:33.906Z,25.50
2017-08-08T15:28:00.821Z,25.70
2017-08-08T15:30:27.769Z,25.90
2017-08-08T15:32:54.650Z,26.00
2017-08-08T15:35:21.589Z,26.30
2017-08-08T15:37:48.462Z,26.60
2017-08-08T15:40:15.345Z,26.90
2017-08-08T15:42:42.534Z,27.10
2017-08-08T15:45:09.549Z,27.00
2017-08-08T15:47:36.433Z,26.90
2017-08-08T15:50:03.318Z,26.70
2017-08-08T15:52:30.284Z,26.50
2017-08-08T15:54:57.234Z,26.40
2017-08-08T15:57:24.113Z,26.20
2017-08-08T15:59:51.027Z,25.80
2017-08-08T16:02:17.975Z,25.60
2017-08-08T16:04:44.924Z,25.40
2017-08-08T16:07:11.846Z,25.20
2017-08-08T16:09:38.729Z,25.00
2017-08-08T16:12:06.065Z,24.90
2017-08-08T16:14:33.025Z,24.90
2017-08-08T16:17:00.302Z,24.60
2017-08-08T16:19:27.185Z,24.60
2017-08-08T16:21:54.161Z,24.70
2017-08-08T16:24:21.040Z,24.70
2017-08-08T16:26:47.921Z,24.80
2017-08-08T16:29:14.944Z,24.70
2017-08-08T16:31:41.821Z,24.70
2017-08-08T16:34:08.701Z,24.90
2017-08-08T16:36:36.192Z,25.80
2017-08-08T16:39:03.070Z,25.80
2017-08-08T16:41:30.038Z,27.10
2017-08-08T16:43:56.995Z,28.50
2017-08-08T16:46:24.342Z,30.90
2017-08-08T16:48:51.231Z,30.90
2017-08-08T16:51:18.157Z,31.00
2017-08-08T16:53:45.057Z,31.30
2017-08-08T16:56:12.022Z,31.30
2017-08-08T16:58:38.972Z,31.20
2017-08-08T17:01:05.912Z,30.10
2017-08-08T17:03:32.870Z,29.50
2017-08-08T17:06:00.216Z,29.80
2017-08-08T17:08:27.109Z,29.90
2017-08-08T17:10:54.018Z,30.10
2017-08-08T17:13:21.321Z,29.40
2017-08-08T17:15:48.232Z,29.40
2017-08-08T17:18:15.557Z,28.00
2017-08-08T17:20:42.506Z,28.00
2017-08-08T17:23:09.459Z,27.40
2017-08-08T17:25:36.813Z,26.20
2017-08-08T17:28:03.757Z,26.20
2017-08-08T17:30:30.651Z,25.70
2017-08-08T17:32:57.561Z,25.40
2017-08-08T17:35:24.913Z,25.20
2017-08-08T17:37:52.260Z,25.10
2017-08-08T17:40:19.216Z,25.10
2017-08-08T17:42:46.573Z,24.80
2017-08-08T17:45:13.890Z,25.00
2017-08-08T17:47:40.874Z,25.00
2017-08-08T17:50:07.813Z,25.10
2017-08-08T17:52:34.764Z,25.20
2017-08-08T17:55:02.050Z,25.30
2017-08-08T17:57:29.008Z,25.30
2017-08-08T17:59:55.901Z,25.20
2017-08-08T18:02:22.784Z,25.20
2017-08-08T18:04:49.692Z,25.40
2017-08-08T18:07:16.646Z,26.20
2017-08-08T18:09:43.599Z,27.00
2017-08-08T18:12:10.957Z,28.10
2017-08-08T18:14:38.301Z,28.60
2017-08-08T18:17:05.217Z,28.60
2017-08-08T18:19:32.193Z,28.70
2017-08-08T18:21:59.142Z,28.80
2017-08-08T18:24:26.602Z,28.00
2017-08-08T18:26:53.572Z,28.00
2017-08-08T18:29:20.461Z,27.60
2017-08-08T18:31:47.390Z,27.00
2017-08-08T18:34:14.304Z,26.40
2017-08-08T18:36:41.179Z,25.80
2017-08-08T18:39:08.102Z,25.40
2017-08-08T18:41:35.017Z,25.00
2017-08-08T18:44:01.901Z,24.80
2017-08-08T18:46:28.911Z,24.60
2017-08-08T18:48:55.818Z,24.30
2017-08-08T18:51:22.762Z,24.20
2017-08-08T18:53:49.644Z,24.00
2017-08-08T18:56:16.575Z,23.80
2017-08-08T18:58:43.542Z,23.30
2017-08-08T19:01:10.488Z,23.20
2017-08-08T19:03:37.438Z,23.00
2017-08-08T19:06:04.377Z,23.00
2017-08-08T19:08:31.327Z,23.00
2017-08-08T19:10:58.269Z,22.90
2017-08-08T19:13:25.217Z,22.90
2017-08-08T19:15:52.097Z,22.90
2017-08-08T19:18:19.017Z,23.00
2017-08-08T19:20:45.956Z,23.00
2017-08-08T19:23:13.312Z,23.00
2017-08-08T19:25:40.259Z,23.00
2017-08-08T19:28:07.207Z,22.90
2017-08-08T19:30:34.089Z,22.90
2017-08-08T19:33:00.999Z,22.70
2017-08-08T19:35:27.912Z,22.40
2017-08-08T19:37:54.891Z,22.10
2017-08-08T19:40:21.837Z,22.00
2017-08-08T19:42:48.734Z,21.70
2017-08-08T19:45:15.649Z,21.60
2017-08-08T19:47:42.954Z,21.30
2017-08-08T19:50:09.930Z,21.30
2017-08-08T19:52:36.911Z,21.20
2017-08-08T19:55:03.800Z,21.20
2017-08-08T19:57:30.714Z,21.10
2017-08-08T19:59:57.613Z,21.00
2017-08-08T20:02:24.965Z,21.00
2017-08-08T20:04:51.883Z,21.00
2017-08-08T20:07:18.773Z,21.00
2017-08-08T20:09:46.074Z,20.90
2017-08-08T20:12:13.083Z,20.90
2017-08-08T20:14:40.366Z,20.90
2017-08-08T20:17:07.249Z,20.90
2017-08-08T20:19:34.182Z,20.90
2017-08-08T20:22:01.056Z,20.90
2017-08-08T20:24:27.938Z,21.00
2017-08-08T20:26:54.861Z,21.10
2017-08-08T20:29:22.145Z,20.90
2017-08-08T20:31:49.141Z,20.90
2017-08-08T20:34:16.094Z,20.90
2017-08-08T20:36:42.974Z,20.80
2017-08-08T20:39:09.940Z,20.70
2017-08-08T20:41:36.841Z,20.80
2017-08-08T20:44:04.123Z,21.00
2017-08-08T20:46:31.000Z,21.00
2017-08-08T20:48:57.974Z,21.10
2017-08-08T20:51:24.929Z,21.00
2017-08-08T20:53:52.282Z,20.80
2017-08-08T20:56:19.638Z,20.70
2017-08-08T20:58:46.989Z,20.70
2017-08-08T21:01:13.983Z,20.70
2017-08-08T21:03:40.918Z,20.80
2017-08-08T21:06:07.825Z,21.00
2017-08-08T21:08:34.705Z,21.20
2017-08-08T21:11:01.621Z,21.30
2017-08-08T21:13:28.578Z,21.30
2017-08-08T21:15:55.920Z,21.30
2017-08-08T21:18:22.846Z,21.30
2017-08-08T21:20:49.730Z,21.30
2017-08-08T21:23:17.075Z,21.30
2017-08-08T21:25:44.425Z,21.30
2017-08-08T21:28:11.308Z,21.30
2017-08-08T21:30:38.217Z,21.30
2017-08-08T21:33:05.161Z,21.30
2017-08-08T21:35:32.109Z,21.30
2017-08-08T21:37:59.053Z,21.20
2017-08-08T21:40:25.997Z,21.00
2017-08-08T21:42:52.945Z,21.00
2017-08-08T21:45:19.893Z,20.70
2017-08-08T21:47:46.838Z,20.50
2017-08-08T21:50:13.806Z,20.50
2017-08-08T21:52:40.838Z,20.50
2017-08-08T21:55:07.729Z,20.40
2017-08-08T21:57:34.605Z,20.40
2017-08-08T22:00:01.577Z,20.30
2017-08-08T22:02:28.593Z,20.30
2017-08-08T22:04:55.565Z,20.30
2017-08-08T22:07:22.534Z,20.40
2017-08-08T22:09:49.430Z,20.30
2017-08-08T22:12:16.310Z,20.30
2017-08-08T22:14:43.661Z,20.30
2017-08-08T22:17:10.564Z,20.30
2017-08-08T22:19:37.463Z,20.20
2017-08-08T22:22:04.805Z,19.80
2017-08-08T22:24:31.749Z,19.90
2017-08-08T22:26:58.705Z,19.80
2017-08-08T22:29:26.056Z,19.90
2017-08-08T22:31:53.005Z,20.00
2017-08-08T22:34:19.951Z,19.90
2017-08-08T22:36:46.925Z,19.80
2017-08-08T22:39:13.832Z,19.60
2017-08-08T22:41:40.801Z,19.50
2017-08-08T22:44:07.735Z,19.50
2017-08-08T22:46:35.094Z,19.40
2017-08-08T22:49:02.433Z,19.40
2017-08-08T22:51:29.390Z,19.40
2017-08-08T22:53:56.737Z,19.60
2017-08-08T22:56:23.691Z,19.60
2017-08-08T22:58:50.635Z,19.50
2017-08-08T23:01:17.581Z,19.40
2017-08-08T23:03:44.936Z,19.40
2017-08-08T23:06:11.854Z,19.40
2017-08-08T23:08:38.872Z,19.30
2017-08-08T23:11:05.777Z,19.20
2017-08-08T23:13:33.130Z,19.30
2017-08-08T23:16:00.083Z,19.30
2017-08-08T23:18:27.429Z,19.10
2017-08-08T23:20:54.373Z,19.10
2017-08-08T23:23:21.253Z,18.90
2017-08-08T23:25:48.135Z,18.60
2017-08-08T23:28:15.112Z,18.30
2017-08-08T23:30:42.062Z,18.10
2017-08-08T23:33:09.009Z,18.00
2017-08-08T23:35:35.954Z,17.90
2017-08-08T23:38:02.897Z,18.10
2017-08-08T23:40:29.856Z,18.20
2017-08-08T23:42:57.209Z,18.40
2017-08-08T23:45:24.557Z,18.50
2017-08-08T23:47:51.523Z,18.50
2017-08-08T23:50:18.805Z,18.60
2017-08-08T23:52:45.689Z,18.60
2017-08-08T23:55:12.604Z,18.50
2017-08-08T23:57:39.504Z,18.60
